createdAt,value
2019-03-11T00:02:54.261Z,31.43
2019-03-11T00:05:23.750Z,29.33
2019-03-11T00:07:53.558Z,28.20
2019-03-11T00:10:23.055Z,22.73
2019-03-11T00:12:52.575Z,17.53
2019-03-11T00:15:22.269Z,18.30
2019-03-11T00:17:51.761Z,15.47
2019-03-11T00:20:21.268Z,18.63
2019-03-11T00:22:50.727Z,19.57
2019-03-11T00:25:20.190Z,14.30
2019-03-11T00:27:49.679Z,16.90
2019-03-11T00:30:19.160Z,23.53
2019-03-11T00:32:48.647Z,21.00
2019-03-11T00:35:18.167Z,13.30
2019-03-11T00:37:47.745Z,16.20
2019-03-11T00:40:17.426Z,12.07
2019-03-11T00:42:46.935Z,12.87
2019-03-11T00:45:16.445Z,14.80
2019-03-11T00:47:45.969Z,11.87
2019-03-11T00:50:15.723Z,12.97
2019-03-11T00:52:45.354Z,12.70
2019-03-11T00:55:15.084Z,12.33
2019-03-11T00:57:44.602Z,12.67
2019-03-11T01:00:26.356Z,12.93
2019-03-11T01:02:55.890Z,9.67
2019-03-11T01:05:25.356Z,12.07
2019-03-11T01:07:54.806Z,11.83
2019-03-11T01:10:24.462Z,13.20
2019-03-11T01:12:54.036Z,12.70
2019-03-11T01:15:23.521Z,14.17
2019-03-11T01:17:53.188Z,10.57
2019-03-11T01:20:22.622Z,13.30
2019-03-11T01:22:52.159Z,13.47
2019-03-11T01:25:21.677Z,11.80
2019-03-11T01:27:51.114Z,12.67
2019-03-11T01:30:20.623Z,12.83
2019-03-11T01:32:50.075Z,12.70
2019-03-11T01:35:19.521Z,11.50
2019-03-11T01:37:49.041Z,12.63
2019-03-11T01:40:18.533Z,10.07
2019-03-11T01:42:47.973Z,12.50
2019-03-11T01:45:17.674Z,10.77
2019-03-11T01:47:47.105Z,9.93
2019-03-11T01:50:16.652Z,10.53
2019-03-11T01:52:46.117Z,12.33
2019-03-11T01:55:15.665Z,9.43
2019-03-11T01:57:45.070Z,11.20
2019-03-11T02:00:15.300Z,9.63
2019-03-11T02:02:44.828Z,12.63
2019-03-11T02:05:14.314Z,10.57
2019-03-11T02:07:43.756Z,13.60
2019-03-11T02:10:14.088Z,10.20
2019-03-11T02:12:43.542Z,11.63
2019-03-11T02:15:14.138Z,8.13
2019-03-11T02:17:43.656Z,7.43
2019-03-11T02:20:14.147Z,8.83
2019-03-11T02:22:43.565Z,8.40
2019-03-11T02:25:13.466Z,8.93
2019-03-11T02:27:42.916Z,8.07
2019-03-11T02:30:12.983Z,8.37
2019-03-11T02:32:42.441Z,10.10
2019-03-11T02:35:12.511Z,12.63
2019-03-11T02:37:42.457Z,10.13
2019-03-11T02:40:14.672Z,11.27
2019-03-11T02:42:44.102Z,10.30
2019-03-11T02:45:13.537Z,11.43
2019-03-11T02:47:42.981Z,11.63
2019-03-11T02:50:12.578Z,11.80
2019-03-11T02:52:42.295Z,14.93
2019-03-11T02:55:12.076Z,13.00
2019-03-11T02:57:41.558Z,15.33
2019-03-11T03:00:12.702Z,14.90
2019-03-11T03:02:58.673Z,11.40
2019-03-11T03:05:38.291Z,11.67
2019-03-11T03:08:08.291Z,12.67
2019-03-11T03:10:37.734Z,14.47
2019-03-11T03:13:07.187Z,12.63
2019-03-11T03:15:36.686Z,13.47
2019-03-11T03:18:06.140Z,10.27
2019-03-11T03:20:35.590Z,9.77
2019-03-11T03:23:05.097Z,13.00
2019-03-11T03:25:35.149Z,11.63
2019-03-11T03:28:04.856Z,10.70
2019-03-11T03:30:34.571Z,11.27
2019-03-11T03:33:04.016Z,14.70
2019-03-11T03:35:33.442Z,14.10
2019-03-11T03:38:02.924Z,15.23
2019-03-11T03:40:32.726Z,15.63
2019-03-11T03:43:02.325Z,16.13
2019-03-11T03:45:40.329Z,18.97
2019-03-11T03:48:12.013Z,21.00
2019-03-11T03:50:41.502Z,17.73
2019-03-11T03:53:11.523Z,25.10
2019-03-11T03:55:41.077Z,20.77
2019-03-11T03:58:10.692Z,16.13
2019-03-11T04:00:40.174Z,18.60
2019-03-11T04:03:09.676Z,16.43
2019-03-11T04:05:39.890Z,17.87
2019-03-11T04:08:09.641Z,20.37
2019-03-11T04:10:39.098Z,21.93
2019-03-11T04:13:08.676Z,16.73
2019-03-11T04:15:38.153Z,20.73
2019-03-11T04:18:09.764Z,16.37
2019-03-11T04:20:39.416Z,16.43
2019-03-11T04:23:08.861Z,20.57
2019-03-11T04:25:40.109Z,16.67
2019-03-11T04:28:09.490Z,17.27
2019-03-11T04:30:39.007Z,18.83
2019-03-11T04:33:10.368Z,14.07
2019-03-11T04:35:40.446Z,18.83
2019-03-11T04:38:12.207Z,16.23
2019-03-11T04:40:43.930Z,17.80
2019-03-11T04:43:13.404Z,16.80
2019-03-11T04:45:42.892Z,21.73
2019-03-11T04:48:12.338Z,17.17
2019-03-11T04:50:41.836Z,18.70
2019-03-11T04:53:11.350Z,18.00
2019-03-11T04:55:43.070Z,17.27
2019-03-11T04:58:12.526Z,15.40
2019-03-11T05:00:44.275Z,17.87
2019-03-11T05:03:13.746Z,15.00
2019-03-11T05:05:43.256Z,17.97
2019-03-11T05:08:12.698Z,25.03
2019-03-11T05:10:42.144Z,19.07
2019-03-11T05:13:12.722Z,16.00
2019-03-11T05:15:42.480Z,12.50
2019-03-11T05:18:12.189Z,13.50
2019-03-11T05:20:41.702Z,12.47
2019-03-11T05:23:11.521Z,14.93
2019-03-11T05:25:41.657Z,23.13
2019-03-11T05:28:11.727Z,15.27
2019-03-11T05:30:41.571Z,19.67
2019-03-11T05:33:11.844Z,22.80
2019-03-11T05:35:41.577Z,13.10
2019-03-11T05:38:11.032Z,15.53
2019-03-11T05:40:40.601Z,17.73
2019-03-11T05:43:10.190Z,14.97
2019-03-11T05:45:39.785Z,17.60
2019-03-11T05:48:09.530Z,10.97
2019-03-11T05:50:39.298Z,15.93
2019-03-11T05:53:08.762Z,15.17
2019-03-11T05:55:38.379Z,14.57
2019-03-11T05:58:07.883Z,14.13
2019-03-11T06:00:37.321Z,13.17
2019-03-11T06:03:06.910Z,15.43
2019-03-11T06:05:36.383Z,13.23
2019-03-11T06:08:06.165Z,13.40
2019-03-11T06:10:35.882Z,17.87
2019-03-11T06:13:05.619Z,15.27
2019-03-11T06:15:35.207Z,15.50
2019-03-11T06:18:04.821Z,15.30
2019-03-11T06:20:56.431Z,15.30
2019-03-11T06:23:26.206Z,12.87
2019-03-11T06:25:55.829Z,12.67
2019-03-11T06:28:25.467Z,13.13
2019-03-11T06:30:54.953Z,21.00
2019-03-11T06:33:24.439Z,20.70
2019-03-11T06:35:54.305Z,17.67
2019-03-11T06:38:23.790Z,19.07
2019-03-11T06:40:53.307Z,16.70
2019-03-11T06:43:26.191Z,17.80
2019-03-11T06:45:55.675Z,16.10
2019-03-11T06:48:25.155Z,14.40
2019-03-11T06:50:55.115Z,11.93
2019-03-11T06:53:24.553Z,14.20
2019-03-11T06:55:54.041Z,12.00
2019-03-11T06:58:24.540Z,12.70
2019-03-11T07:00:53.974Z,12.30
2019-03-11T07:03:23.436Z,14.70
2019-03-11T07:05:55.105Z,11.13
2019-03-11T07:08:24.640Z,14.50
2019-03-11T07:10:54.093Z,13.40
2019-03-11T07:13:23.639Z,15.43
2019-03-11T07:15:53.082Z,29.37
2019-03-11T07:18:22.580Z,15.17
2019-03-11T07:20:52.056Z,23.53
2019-03-11T07:23:21.530Z,15.20
2019-03-11T07:25:51.072Z,16.17
2019-03-11T07:28:20.519Z,10.57
2019-03-11T07:30:50.002Z,15.30
2019-03-11T07:33:19.514Z,10.50
2019-03-11T07:35:48.954Z,6.83
2019-03-11T07:38:18.404Z,2.93
2019-03-11T07:40:47.908Z,3.73
2019-03-11T07:43:17.426Z,5.93
2019-03-11T07:45:46.976Z,2.33
2019-03-11T07:48:16.499Z,5.27
2019-03-11T07:50:45.976Z,3.57
2019-03-11T07:53:15.511Z,3.40
2019-03-11T07:55:44.996Z,3.63
2019-03-11T07:58:14.488Z,6.07
2019-03-11T08:00:53.445Z,4.97
2019-03-11T08:03:15.090Z,4.90
2019-03-11T08:05:44.555Z,6.47
2019-03-11T08:08:14.044Z,3.67
2019-03-11T08:10:43.585Z,3.47
2019-03-11T08:13:12.977Z,4.73
2019-03-11T08:15:42.481Z,3.53
2019-03-11T08:18:11.905Z,5.17
2019-03-11T08:20:41.334Z,3.30
2019-03-11T08:23:10.987Z,7.47
2019-03-11T08:25:40.442Z,10.97
2019-03-11T08:28:09.926Z,8.03
2019-03-11T08:30:39.412Z,14.63
2019-03-11T08:33:08.910Z,8.27
2019-03-11T08:35:38.365Z,16.77
2019-03-11T08:38:07.836Z,7.07
2019-03-11T08:40:37.477Z,11.60
2019-03-11T08:43:07.201Z,10.57
2019-03-11T08:45:36.653Z,5.80
2019-03-11T08:48:06.324Z,5.53
2019-03-11T08:50:35.940Z,5.53
2019-03-11T08:53:05.548Z,7.70
2019-03-11T08:55:35.328Z,5.47
2019-03-11T08:58:04.757Z,5.80
2019-03-11T09:00:34.210Z,8.77
2019-03-11T09:03:03.677Z,10.80
2019-03-11T09:05:33.224Z,11.90
2019-03-11T09:08:02.689Z,5.73
2019-03-11T09:10:32.132Z,10.10
2019-03-11T09:13:01.581Z,6.80
2019-03-11T09:15:31.086Z,7.33
2019-03-11T09:18:00.546Z,5.23
2019-03-11T09:20:30.110Z,6.10
2019-03-11T09:22:59.611Z,4.07
2019-03-11T09:25:29.056Z,6.63
2019-03-11T09:27:58.531Z,3.40
2019-03-11T09:30:27.995Z,6.67
2019-03-11T09:32:58.215Z,5.43
2019-03-11T09:35:27.710Z,3.83
2019-03-11T09:37:57.186Z,4.43
2019-03-11T09:40:26.779Z,2.10
2019-03-11T09:42:56.569Z,4.43
2019-03-11T09:45:26.081Z,4.20
2019-03-11T09:47:55.569Z,3.83
2019-03-11T09:50:25.034Z,4.07
2019-03-11T09:52:54.516Z,10.20
2019-03-11T09:55:24.018Z,4.17
2019-03-11T09:57:53.659Z,2.77
2019-03-11T10:00:23.233Z,5.47
2019-03-11T10:02:53.566Z,5.37
2019-03-11T10:05:24.726Z,3.77
2019-03-11T10:07:54.362Z,2.30
2019-03-11T10:10:24.047Z,5.53
2019-03-11T10:12:53.504Z,3.73
2019-03-11T10:15:23.637Z,5.00
2019-03-11T10:17:53.459Z,1.90
2019-03-11T10:20:22.964Z,2.30
2019-03-11T10:22:52.423Z,3.97
2019-03-11T10:25:21.920Z,6.83
2019-03-11T10:27:51.703Z,4.27
2019-03-11T10:30:21.275Z,2.40
2019-03-11T10:32:50.851Z,4.03
2019-03-11T10:35:32.670Z,2.20
2019-03-11T10:37:52.495Z,5.53
2019-03-11T10:40:22.183Z,5.50
2019-03-11T10:42:51.642Z,3.23
2019-03-11T10:45:30.569Z,2.93
2019-03-11T10:47:52.618Z,3.47
2019-03-11T10:50:22.299Z,2.80
2019-03-11T10:52:51.764Z,2.90
2019-03-11T10:55:21.237Z,5.63
2019-03-11T10:57:51.614Z,5.03
2019-03-11T11:00:23.373Z,2.20
2019-03-11T11:02:53.023Z,4.13
2019-03-11T11:05:22.762Z,3.97
2019-03-11T11:07:52.460Z,2.00
2019-03-11T11:10:22.197Z,5.03
2019-03-11T11:12:51.698Z,7.73
2019-03-11T11:15:22.546Z,2.20
2019-03-11T11:17:52.276Z,4.63
2019-03-11T11:20:22.411Z,3.23
2019-03-11T11:22:52.583Z,3.03
2019-03-11T11:25:22.054Z,3.90
2019-03-11T11:27:53.296Z,4.70
2019-03-11T11:30:23.006Z,3.80
2019-03-11T11:32:52.866Z,4.13
2019-03-11T11:35:22.487Z,2.53
2019-03-11T11:37:52.472Z,5.83
2019-03-11T11:40:23.354Z,6.60
2019-03-11T11:42:53.223Z,8.23
2019-03-11T11:45:23.099Z,7.73
2019-03-11T11:47:52.682Z,5.30
2019-03-11T11:50:23.703Z,2.80
2019-03-11T11:52:53.865Z,10.47
2019-03-11T11:55:24.121Z,3.03
2019-03-11T11:57:54.014Z,2.67
2019-03-11T12:00:26.322Z,6.70
2019-03-11T12:02:55.953Z,3.33
2019-03-11T12:05:25.608Z,3.53
2019-03-11T12:07:55.165Z,4.63
2019-03-11T12:10:24.910Z,3.97
2019-03-11T12:12:54.525Z,7.47
2019-03-11T12:15:24.008Z,5.47
2019-03-11T12:17:53.709Z,5.43
2019-03-11T12:20:23.982Z,5.03
2019-03-11T12:22:53.436Z,4.90
2019-03-11T12:25:23.218Z,3.37
2019-03-11T12:27:53.970Z,4.40
2019-03-11T12:30:25.192Z,5.30
2019-03-11T12:32:54.923Z,6.27
2019-03-11T12:35:24.566Z,5.67
2019-03-11T12:37:55.050Z,5.63
2019-03-11T12:40:24.843Z,6.07
2019-03-11T12:42:54.761Z,6.53
2019-03-11T12:45:24.266Z,5.57
2019-03-11T12:47:53.853Z,5.17
2019-03-11T12:50:23.411Z,5.40
2019-03-11T12:52:53.025Z,6.20
2019-03-11T12:55:22.515Z,6.20
2019-03-11T12:57:52.073Z,5.20
2019-03-11T13:00:21.557Z,7.27
2019-03-11T13:02:51.391Z,5.83
2019-03-11T13:05:21.279Z,5.03
2019-03-11T13:07:50.808Z,9.57
2019-03-11T13:10:21.094Z,6.13
2019-03-11T13:12:51.110Z,7.50
2019-03-11T13:15:21.268Z,14.83
2019-03-11T13:17:50.821Z,8.97
2019-03-11T13:20:29.920Z,7.40
2019-03-11T13:22:59.417Z,10.63
2019-03-11T13:25:28.951Z,16.10
2019-03-11T13:27:58.573Z,26.33
2019-03-11T13:30:28.074Z,21.67
2019-03-11T13:32:57.617Z,10.07
2019-03-11T13:35:27.188Z,13.83
2019-03-11T13:37:56.696Z,8.80
2019-03-11T13:40:26.212Z,7.60
2019-03-11T13:42:55.813Z,6.30
2019-03-11T13:45:25.468Z,5.77
2019-03-11T13:47:54.983Z,6.47
2019-03-11T13:50:24.531Z,7.03
2019-03-11T13:52:54.318Z,8.33
2019-03-11T13:55:23.789Z,7.47
2019-03-11T13:57:53.323Z,11.37
2019-03-11T14:00:22.808Z,9.40
2019-03-11T14:02:52.262Z,5.80
2019-03-11T14:05:21.848Z,7.37
2019-03-11T14:07:51.467Z,6.93
2019-03-11T14:10:21.015Z,17.00
2019-03-11T14:12:50.509Z,44.57
2019-03-11T14:15:20.135Z,37.87
2019-03-11T14:17:49.536Z,52.00
2019-03-11T14:20:19.071Z,17.73
2019-03-11T14:22:48.540Z,21.40
2019-03-11T14:25:18.010Z,8.77
2019-03-11T14:27:47.521Z,5.20
2019-03-11T14:30:17.003Z,5.87
2019-03-11T14:32:46.647Z,5.73
2019-03-11T14:35:16.251Z,8.50
2019-03-11T14:37:45.852Z,11.03
2019-03-11T14:40:15.430Z,12.07
2019-03-11T14:42:44.899Z,6.33
2019-03-11T14:45:15.370Z,7.80
2019-03-11T14:47:44.951Z,10.83
2019-03-11T14:50:14.750Z,7.50
2019-03-11T14:52:44.556Z,8.70
2019-03-11T14:55:14.027Z,8.90
2019-03-11T14:57:43.767Z,6.17
2019-03-11T15:00:17.924Z,10.23
2019-03-11T15:02:46.482Z,7.83
2019-03-11T15:05:16.961Z,9.27
2019-03-11T15:07:46.572Z,5.93
2019-03-11T15:10:16.270Z,13.00
2019-03-11T15:12:46.248Z,15.17
2019-03-11T15:15:16.705Z,10.27
2019-03-11T15:17:46.376Z,9.90
2019-03-11T15:20:16.344Z,13.53
2019-03-11T15:22:46.158Z,13.33
2019-03-11T15:25:16.136Z,13.07
2019-03-11T15:27:45.749Z,12.60
2019-03-11T15:30:18.164Z,11.33
2019-03-11T15:32:47.635Z,13.50
2019-03-11T15:35:17.483Z,9.67
2019-03-11T15:37:47.059Z,14.63
2019-03-11T15:40:16.674Z,17.80
2019-03-11T15:42:46.925Z,14.57
2019-03-11T15:45:16.401Z,11.53
2019-03-11T15:47:45.881Z,16.23
2019-03-11T15:50:17.986Z,15.03
2019-03-11T15:52:47.445Z,13.77
2019-03-11T15:55:17.572Z,14.20
2019-03-11T15:57:47.343Z,15.37
2019-03-11T16:00:18.970Z,17.77
2019-03-11T16:02:48.994Z,30.27
2019-03-11T16:05:19.996Z,28.77
2019-03-11T16:07:49.665Z,34.00
2019-03-11T16:10:19.407Z,25.07
2019-03-11T16:12:48.913Z,14.37
2019-03-11T16:15:18.799Z,21.23
2019-03-11T16:18:24.499Z,19.73
2019-03-11T16:20:54.098Z,25.87
2019-03-11T16:23:23.646Z,19.30
2019-03-11T16:25:53.179Z,20.53
2019-03-11T16:28:22.669Z,21.93
2019-03-11T16:30:52.187Z,18.60
2019-03-11T16:33:21.673Z,16.50
2019-03-11T16:35:51.224Z,20.20
2019-03-11T16:38:21.084Z,21.03
2019-03-11T16:40:50.661Z,23.23
2019-03-11T16:43:20.528Z,30.80
2019-03-11T16:45:50.048Z,34.37
2019-03-11T16:48:19.867Z,35.40
2019-03-11T16:50:49.357Z,35.00
2019-03-11T16:53:18.824Z,36.93
2019-03-11T16:55:49.860Z,33.40
2019-03-11T16:58:19.334Z,40.60
2019-03-11T17:00:49.100Z,41.00
2019-03-11T17:03:18.593Z,35.10
2019-03-11T17:05:48.195Z,33.50
2019-03-11T17:08:17.652Z,30.73
2019-03-11T17:10:47.165Z,24.47
2019-03-11T17:13:16.881Z,27.60
2019-03-11T17:15:46.381Z,28.43
2019-03-11T17:18:15.929Z,22.23
2019-03-11T17:20:45.549Z,28.50
2019-03-11T17:23:14.988Z,32.33
2019-03-11T17:25:44.624Z,32.83
2019-03-11T17:28:14.143Z,31.27
2019-03-11T17:30:43.680Z,21.87
2019-03-11T17:33:13.163Z,29.33
2019-03-11T17:35:42.738Z,22.60
2019-03-11T17:38:12.211Z,36.90
2019-03-11T17:40:41.774Z,32.70
2019-03-11T17:43:11.251Z,27.80
2019-03-11T17:45:40.746Z,31.57
2019-03-11T17:48:10.230Z,31.90
2019-03-11T17:50:39.714Z,32.27
2019-03-11T17:53:19.641Z,37.67
2019-03-11T17:55:40.407Z,40.77
2019-03-11T17:58:09.873Z,43.47
2019-03-11T18:00:40.855Z,42.60
2019-03-11T18:03:10.318Z,41.07
2019-03-11T18:05:39.883Z,47.50
2019-03-11T18:08:09.693Z,46.53
2019-03-11T18:10:39.168Z,48.97
2019-03-11T18:13:08.813Z,48.20
2019-03-11T18:15:38.350Z,59.10
2019-03-11T18:18:07.829Z,47.37
2019-03-11T18:20:37.308Z,48.90
2019-03-11T18:23:06.904Z,38.97
2019-03-11T18:25:36.392Z,32.33
2019-03-11T18:28:05.915Z,41.77
2019-03-11T18:30:35.596Z,59.87
2019-03-11T18:33:05.700Z,61.10
2019-03-11T18:35:35.201Z,66.20
2019-03-11T18:38:05.099Z,64.57
2019-03-11T18:40:34.749Z,65.07
2019-03-11T18:43:04.318Z,57.07
2019-03-11T18:45:33.972Z,66.83
2019-03-11T18:48:03.595Z,57.67
2019-03-11T18:50:33.291Z,78.57
2019-03-11T18:53:02.869Z,72.43
2019-03-11T18:55:32.862Z,67.73
2019-03-11T18:58:02.278Z,155.73
2019-03-11T19:00:31.935Z,167.93
2019-03-11T19:03:01.401Z,77.77
2019-03-11T19:05:30.961Z,89.00
2019-03-11T19:08:00.521Z,85.87
2019-03-11T19:10:30.162Z,115.77
2019-03-11T19:12:59.888Z,102.50
2019-03-11T19:15:29.742Z,93.57
2019-03-11T19:17:59.384Z,88.47
2019-03-11T19:20:28.816Z,66.80
2019-03-11T19:22:58.347Z,53.47
2019-03-11T19:25:27.882Z,47.27
2019-03-11T19:27:57.406Z,39.93
2019-03-11T19:30:26.896Z,39.60
2019-03-11T19:32:56.387Z,39.30
2019-03-11T19:35:26.020Z,35.60
2019-03-11T19:37:55.519Z,36.63
2019-03-11T19:40:25.157Z,42.80
2019-03-11T19:42:56.384Z,43.37
2019-03-11T19:45:26.112Z,36.10
2019-03-11T19:47:56.090Z,35.97
2019-03-11T19:50:25.807Z,40.73
2019-03-11T19:52:59.008Z,37.53
2019-03-11T19:55:26.668Z,39.20
2019-03-11T19:57:56.167Z,37.53
2019-03-11T20:00:26.379Z,35.60
2019-03-11T20:02:55.933Z,38.17
2019-03-11T20:05:25.802Z,39.10
2019-03-11T20:07:55.406Z,37.37
2019-03-11T20:10:24.927Z,34.73
2019-03-11T20:12:54.560Z,40.27
2019-03-11T20:15:24.005Z,42.37
2019-03-11T20:17:53.487Z,36.70
2019-03-11T20:20:22.901Z,37.20
2019-03-11T20:22:52.431Z,35.07
2019-03-11T20:25:24.171Z,39.70
2019-03-11T20:27:53.651Z,43.70
2019-03-11T20:30:23.373Z,44.40
2019-03-11T20:32:53.032Z,52.47
2019-03-11T20:35:22.463Z,44.40
2019-03-11T20:37:51.941Z,41.97
2019-03-11T20:40:21.425Z,42.43
2019-03-11T20:42:50.898Z,46.03
2019-03-11T20:45:20.418Z,51.07
2019-03-11T20:47:49.982Z,54.47
2019-03-11T20:50:19.617Z,51.53
2019-03-11T20:52:49.115Z,49.43
2019-03-11T20:55:18.748Z,45.97
2019-03-11T20:57:48.448Z,47.27
2019-03-11T21:00:19.365Z,50.70
2019-03-11T21:02:49.036Z,52.90
2019-03-11T21:05:20.438Z,58.10
2019-03-11T21:07:49.885Z,63.70
2019-03-11T21:10:19.904Z,60.13
2019-03-11T21:12:49.404Z,58.27
2019-03-11T21:15:18.861Z,53.90
2019-03-11T21:17:48.294Z,59.90
2019-03-11T21:20:17.823Z,70.27
2019-03-11T21:22:47.356Z,76.73
2019-03-11T21:25:17.287Z,66.20
2019-03-11T21:27:46.769Z,65.57
2019-03-11T21:30:18.181Z,58.47
2019-03-11T21:32:47.652Z,64.07
2019-03-11T21:35:17.175Z,63.30
2019-03-11T21:37:46.631Z,74.43
2019-03-11T21:40:17.155Z,69.00
2019-03-11T21:42:46.801Z,69.10
2019-03-11T21:45:16.247Z,67.27
2019-03-11T21:47:45.723Z,62.90
2019-03-11T21:50:16.848Z,59.63
2019-03-11T21:52:46.571Z,61.77
2019-03-11T21:55:16.057Z,56.07
2019-03-11T21:57:45.499Z,61.00
2019-03-11T22:00:17.031Z,69.93
2019-03-11T22:02:46.422Z,60.53
2019-03-11T22:05:15.894Z,58.03
2019-03-11T22:07:46.923Z,55.43
2019-03-11T22:10:16.530Z,56.27
2019-03-11T22:12:46.161Z,55.63
2019-03-11T22:15:15.854Z,59.30
2019-03-11T22:17:45.305Z,63.00
2019-03-11T22:20:15.149Z,59.33
2019-03-11T22:22:44.603Z,62.83
2019-03-11T22:25:14.504Z,62.17
2019-03-11T22:27:43.992Z,66.17
2019-03-11T22:30:20.054Z,63.90
2019-03-11T22:32:49.549Z,56.97
2019-03-11T22:35:18.988Z,65.37
2019-03-11T22:37:48.639Z,61.77
2019-03-11T22:40:18.233Z,60.13
2019-03-11T22:42:47.692Z,67.30
2019-03-11T22:45:19.616Z,67.73
2019-03-11T22:47:49.506Z,62.97
2019-03-11T22:50:18.950Z,65.90
2019-03-11T22:52:48.388Z,71.60
2019-03-11T22:55:19.222Z,60.10
2019-03-11T22:57:48.738Z,61.70
2019-03-11T23:00:54.887Z,57.90
2019-03-11T23:03:25.207Z,55.20
2019-03-11T23:05:57.938Z,53.80
2019-03-11T23:08:26.128Z,54.57
2019-03-11T23:10:55.611Z,52.13
2019-03-11T23:13:25.113Z,51.37
2019-03-11T23:15:54.644Z,52.37
2019-03-11T23:18:24.123Z,51.00
2019-03-11T23:20:53.596Z,52.17
2019-03-11T23:23:23.048Z,47.63
2019-03-11T23:25:52.502Z,53.30
2019-03-11T23:28:21.983Z,42.47
2019-03-11T23:30:51.438Z,42.77
2019-03-11T23:33:20.865Z,44.73
2019-03-11T23:35:50.349Z,44.03
2019-03-11T23:38:19.804Z,42.03
2019-03-11T23:40:49.269Z,34.80
2019-03-11T23:43:18.735Z,37.33
2019-03-11T23:45:48.201Z,40.10
2019-03-11T23:48:17.645Z,38.63
2019-03-11T23:50:47.095Z,37.83
2019-03-11T23:53:16.697Z,36.27
2019-03-11T23:55:46.171Z,35.43
2019-03-11T23:58:15.614Z,35.97
